createdAt,value
2023-02-06T00:00:50.000Z,70.18
2023-02-06T00:03:16.608Z,69.98
2023-02-06T00:05:43.279Z,70.37
2023-02-06T00:08:09.803Z,70.38
2023-02-06T00:10:36.326Z,69.54
2023-02-06T00:13:02.827Z,69.73
2023-02-06T00:15:29.361Z,68.30
2023-02-06T00:17:56.240Z,69.26
2023-02-06T00:20:22.752Z,70.49
2023-02-06T00:22:49.239Z,69.71
2023-02-06T00:25:15.802Z,69.43
2023-02-06T00:27:42.356Z,69.23
2023-02-06T00:30:09.141Z,68.84
2023-02-06T00:32:35.801Z,69.40
2023-02-06T00:35:02.326Z,68.58
2023-02-06T00:37:28.802Z,68.34
2023-02-06T00:39:55.298Z,69.06
2023-02-06T00:42:21.805Z,68.69
2023-02-06T00:44:48.326Z,67.79
2023-02-06T00:47:15.145Z,67.73
2023-02-06T00:49:41.918Z,67.85
2023-02-06T00:52:08.511Z,67.81
2023-02-06T00:54:35.043Z,68.11
2023-02-06T00:57:01.548Z,68.02
2023-02-06T00:59:28.074Z,67.70
2023-02-06T01:01:55.239Z,67.68
2023-02-06T01:04:21.707Z,68.54
2023-02-06T01:06:48.257Z,68.51
2023-02-06T01:09:14.842Z,67.77
2023-02-06T01:11:41.333Z,68.29
2023-02-06T01:14:07.859Z,67.96
2023-02-06T01:16:34.354Z,68.33
2023-02-06T01:19:01.185Z,67.82
2023-02-06T01:21:27.746Z,68.53
2023-02-06T01:23:55.019Z,69.02
2023-02-06T01:26:24.116Z,68.51
2023-02-06T01:28:50.967Z,69.75
2023-02-06T01:31:20.900Z,68.93
2023-02-06T01:33:48.821Z,69.39
2023-02-06T01:36:16.469Z,69.33
2023-02-06T01:38:43.355Z,68.31
2023-02-06T01:41:10.724Z,68.75
2023-02-06T01:43:40.381Z,68.46
2023-02-06T01:46:07.340Z,69.85
2023-02-06T01:48:50.083Z,69.41
2023-02-06T01:51:22.932Z,69.24
2023-02-06T01:53:55.726Z,69.43
2023-02-06T01:56:23.606Z,69.32
2023-02-06T01:58:53.093Z,69.59
2023-02-06T02:01:20.080Z,70.21
2023-02-06T02:03:48.921Z,69.41
2023-02-06T02:06:18.891Z,70.83
2023-02-06T02:08:47.273Z,70.79
2023-02-06T02:11:16.328Z,69.56
2023-02-06T02:13:43.053Z,68.83
2023-02-06T02:16:20.521Z,68.19
2023-02-06T02:18:59.560Z,68.85
2023-02-06T02:21:28.942Z,68.87
2023-02-06T02:24:05.878Z,69.57
2023-02-06T02:27:04.285Z,68.88
2023-02-06T02:29:37.135Z,69.40
2023-02-06T02:32:19.551Z,68.49
2023-02-06T02:35:00.515Z,68.97
2023-02-06T02:37:32.433Z,68.81
2023-02-06T02:39:58.853Z,68.43
2023-02-06T02:42:35.333Z,67.89
2023-02-06T02:45:14.057Z,68.55
2023-02-06T02:47:56.056Z,68.53
2023-02-06T02:50:23.052Z,68.21
2023-02-06T02:52:49.770Z,68.22
2023-02-06T02:55:22.331Z,68.40
2023-02-06T02:57:56.311Z,68.59
2023-02-06T03:00:24.091Z,68.09
2023-02-06T03:02:51.726Z,68.45
2023-02-06T03:05:20.727Z,68.35
2023-02-06T03:08:06.404Z,69.17
2023-02-06T03:10:41.139Z,68.72
2023-02-06T03:13:21.520Z,68.33
2023-02-06T03:15:59.153Z,69.08
2023-02-06T03:18:30.964Z,69.07
2023-02-06T03:20:59.033Z,68.47
2023-02-06T03:23:31.755Z,68.64
2023-02-06T03:26:00.719Z,68.72
2023-02-06T03:28:32.200Z,68.49
2023-02-06T03:31:00.094Z,68.32
2023-02-06T03:33:31.779Z,68.19
2023-02-06T03:35:58.945Z,67.97
2023-02-06T03:38:25.852Z,67.79
2023-02-06T03:40:53.410Z,68.10
2023-02-06T03:43:20.579Z,68.26
2023-02-06T03:45:50.559Z,67.80
2023-02-06T03:48:21.845Z,68.14
2023-02-06T03:50:50.196Z,68.16
2023-02-06T03:53:18.127Z,69.57
2023-02-06T03:55:46.077Z,70.42
2023-02-06T03:58:14.049Z,69.71
2023-02-06T04:00:42.293Z,70.13
2023-02-06T04:03:10.276Z,70.39
2023-02-06T04:05:37.737Z,68.89
2023-02-06T04:08:04.672Z,69.07
2023-02-06T04:10:31.357Z,69.72
2023-02-06T04:12:57.895Z,69.51
2023-02-06T04:15:24.480Z,69.59
2023-02-06T04:17:59.857Z,71.14
2023-02-06T04:20:27.353Z,69.86
2023-02-06T04:22:53.850Z,69.27
2023-02-06T04:25:20.364Z,68.34
2023-02-06T04:27:47.421Z,68.44
2023-02-06T04:30:14.186Z,70.33
2023-02-06T04:32:40.739Z,69.48
2023-02-06T04:35:07.558Z,68.87
2023-02-06T04:37:34.084Z,68.97
2023-02-06T04:40:00.584Z,69.37
2023-02-06T04:42:27.213Z,68.75
2023-02-06T04:44:53.724Z,68.21
2023-02-06T04:47:20.217Z,69.27
2023-02-06T04:49:46.707Z,68.80
2023-02-06T04:52:13.335Z,68.61
2023-02-06T04:54:39.848Z,69.36
2023-02-06T04:57:06.426Z,68.22
2023-02-06T04:59:32.920Z,67.94
2023-02-06T05:01:59.393Z,68.40
2023-02-06T05:04:25.909Z,67.76
2023-02-06T05:06:52.412Z,68.05
2023-02-06T05:09:18.946Z,67.66
2023-02-06T05:11:47.043Z,68.15
2023-02-06T05:14:13.548Z,67.57
2023-02-06T05:16:40.067Z,68.77
2023-02-06T05:19:06.531Z,68.24
2023-02-06T05:21:33.877Z,67.95
2023-02-06T05:24:00.409Z,68.93
2023-02-06T05:26:26.989Z,68.12
2023-02-06T05:28:53.460Z,67.78
2023-02-06T05:31:20.262Z,68.26
2023-02-06T05:33:51.146Z,68.17
2023-02-06T05:36:19.069Z,68.19
2023-02-06T05:38:45.624Z,67.29
2023-02-06T05:41:12.181Z,67.69
2023-02-06T05:43:38.774Z,68.10
2023-02-06T05:46:05.332Z,67.49
2023-02-06T05:48:34.396Z,67.39
2023-02-06T05:51:01.411Z,67.24
2023-02-06T05:53:28.089Z,67.45
2023-02-06T05:55:54.597Z,67.54
2023-02-06T05:58:21.216Z,67.33
2023-02-06T06:00:48.409Z,66.80
2023-02-06T06:03:14.905Z,66.25
2023-02-06T06:05:41.713Z,66.41
2023-02-06T06:08:08.295Z,67.27
2023-02-06T06:10:35.392Z,67.66
2023-02-06T06:13:01.990Z,67.72
2023-02-06T06:15:28.545Z,67.71
2023-02-06T06:17:55.351Z,67.38
2023-02-06T06:20:22.271Z,66.39
2023-02-06T06:22:48.778Z,67.46
2023-02-06T06:25:15.310Z,66.87
2023-02-06T06:27:42.040Z,66.00
2023-02-06T06:30:09.569Z,67.01
2023-02-06T06:32:36.672Z,66.52
2023-02-06T06:35:03.598Z,66.64
2023-02-06T06:37:40.476Z,67.24
2023-02-06T06:40:08.039Z,67.64
2023-02-06T06:42:34.582Z,66.92
2023-02-06T06:45:01.129Z,66.69
2023-02-06T06:47:27.941Z,67.85
2023-02-06T06:49:54.497Z,67.72
2023-02-06T06:52:25.277Z,67.56
2023-02-06T06:54:53.125Z,68.51
2023-02-06T06:57:20.679Z,67.25
2023-02-06T06:59:53.564Z,67.38
2023-02-06T07:02:20.520Z,67.81
2023-02-06T07:04:47.477Z,67.06
2023-02-06T07:07:14.028Z,66.89
2023-02-06T07:09:40.534Z,66.60
2023-02-06T07:12:07.174Z,66.25
2023-02-06T07:14:33.734Z,66.10
2023-02-06T07:17:01.606Z,66.75
2023-02-06T07:19:28.116Z,66.90
2023-02-06T07:21:54.663Z,66.38
2023-02-06T07:24:21.193Z,66.42
2023-02-06T07:26:48.241Z,66.93
2023-02-06T07:29:14.752Z,67.17
2023-02-06T07:31:41.432Z,66.75
2023-02-06T07:34:07.992Z,66.63
2023-02-06T07:36:34.680Z,66.04
2023-02-06T07:39:03.014Z,65.69
2023-02-06T07:41:29.532Z,66.12
2023-02-06T07:43:56.842Z,66.03
2023-02-06T07:46:23.618Z,65.37
2023-02-06T07:48:50.565Z,63.88
2023-02-06T07:51:17.159Z,65.65
2023-02-06T07:53:43.697Z,65.25
2023-02-06T07:56:19.048Z,64.18
2023-02-06T07:58:47.241Z,64.29
2023-02-06T08:01:13.809Z,63.19
2023-02-06T08:03:40.346Z,64.46
2023-02-06T08:06:11.571Z,63.70
2023-02-06T08:08:41.550Z,63.28
2023-02-06T08:11:10.833Z,63.03
2023-02-06T08:13:39.833Z,63.17
2023-02-06T08:16:08.229Z,63.00
2023-02-06T08:18:34.858Z,63.21
2023-02-06T08:21:03.692Z,63.30
2023-02-06T08:23:30.365Z,63.09
2023-02-06T08:26:05.665Z,63.46
2023-02-06T08:28:32.347Z,62.78
2023-02-06T08:30:59.045Z,64.11
2023-02-06T08:33:25.772Z,64.36
2023-02-06T08:35:52.478Z,63.70
2023-02-06T08:38:18.957Z,63.89
2023-02-06T08:40:45.547Z,65.09
2023-02-06T08:43:12.093Z,63.92
2023-02-06T08:45:38.645Z,63.50
2023-02-06T08:48:05.233Z,61.47
2023-02-06T08:50:31.793Z,63.49
2023-02-06T08:52:59.123Z,63.61
2023-02-06T08:55:31.675Z,64.55
2023-02-06T08:57:58.243Z,64.03
2023-02-06T09:00:24.806Z,63.73
2023-02-06T09:02:55.056Z,63.35
2023-02-06T09:05:22.423Z,63.32
2023-02-06T09:07:49.730Z,63.36
2023-02-06T09:10:27.118Z,62.69
2023-02-06T09:12:57.639Z,62.67
2023-02-06T09:15:24.322Z,62.93
2023-02-06T09:17:50.923Z,63.04
2023-02-06T09:20:17.987Z,62.80
2023-02-06T09:22:44.642Z,62.63
2023-02-06T09:25:11.337Z,62.25
2023-02-06T09:27:38.034Z,61.36
2023-02-06T09:30:05.966Z,61.49
2023-02-06T09:32:32.478Z,61.42
2023-02-06T09:34:59.034Z,60.64
2023-02-06T09:37:25.514Z,61.15
2023-02-06T09:39:52.069Z,60.78
2023-02-06T09:42:27.715Z,60.17
2023-02-06T09:45:03.121Z,60.30
2023-02-06T09:47:40.156Z,60.42
2023-02-06T09:50:13.650Z,59.55
2023-02-06T09:53:17.128Z,60.22
2023-02-06T09:55:54.724Z,60.55
2023-02-06T09:58:31.181Z,58.48
2023-02-06T10:01:03.781Z,59.30
2023-02-06T10:04:10.137Z,59.24
2023-02-06T10:06:46.168Z,59.50
2023-02-06T10:09:22.074Z,59.29
2023-02-06T10:12:06.185Z,59.38
2023-02-06T10:14:59.358Z,58.05
2023-02-06T10:17:39.941Z,59.58
2023-02-06T10:20:31.924Z,58.90
2023-02-06T10:23:16.069Z,58.68
2023-02-06T10:25:49.757Z,58.24
2023-02-06T10:28:27.228Z,57.40
2023-02-06T10:31:09.600Z,58.33
2023-02-06T10:33:45.531Z,57.41
2023-02-06T10:36:26.794Z,58.31
2023-02-06T10:39:20.855Z,57.97
2023-02-06T10:41:56.426Z,56.90
2023-02-06T10:44:51.141Z,57.44
2023-02-06T10:47:41.267Z,56.95
2023-02-06T10:50:34.456Z,56.22
2023-02-06T10:53:05.565Z,55.55
2023-02-06T10:55:41.620Z,55.88
2023-02-06T10:58:42.993Z,55.54
2023-02-06T11:01:25.043Z,55.62
2023-02-06T11:04:17.634Z,55.42
2023-02-06T11:06:46.789Z,56.42
2023-02-06T11:09:14.516Z,55.07
2023-02-06T11:11:46.042Z,55.43
2023-02-06T11:14:18.005Z,55.27
2023-02-06T11:16:44.752Z,55.10
2023-02-06T11:19:17.481Z,55.17
2023-02-06T11:21:43.974Z,56.22
2023-02-06T11:24:16.142Z,56.08
2023-02-06T11:26:47.157Z,55.12
2023-02-06T11:29:39.301Z,55.31
2023-02-06T11:32:07.609Z,56.03
2023-02-06T11:34:36.775Z,56.33
2023-02-06T11:37:36.837Z,55.31
2023-02-06T11:40:18.952Z,56.63
2023-02-06T11:42:52.641Z,56.07
2023-02-06T11:45:33.082Z,56.17
2023-02-06T11:48:02.229Z,59.63
2023-02-06T11:50:37.230Z,58.70
2023-02-06T11:53:18.208Z,59.55
2023-02-06T11:55:46.740Z,59.11
2023-02-06T11:58:13.144Z,59.89
2023-02-06T12:00:51.945Z,59.15
2023-02-06T12:03:35.451Z,59.42
2023-02-06T12:06:20.243Z,57.78
2023-02-06T12:08:52.709Z,59.09
2023-02-06T12:11:33.296Z,60.21
2023-02-06T12:14:07.239Z,58.74
2023-02-06T12:16:36.689Z,59.12
2023-02-06T12:19:10.711Z,59.75
2023-02-06T12:21:57.279Z,59.70
2023-02-06T12:24:32.279Z,59.23
2023-02-06T12:27:05.741Z,60.15
2023-02-06T12:29:38.889Z,58.51
2023-02-06T12:32:18.299Z,60.21
2023-02-06T12:34:56.401Z,59.14
2023-02-06T12:37:40.225Z,57.50
2023-02-06T12:40:27.027Z,57.24
2023-02-06T12:43:08.170Z,54.40
2023-02-06T12:45:40.564Z,55.35
2023-02-06T12:48:21.480Z,56.15
2023-02-06T12:51:09.984Z,55.80
2023-02-06T12:53:48.457Z,56.29
2023-02-06T12:56:23.355Z,54.81
2023-02-06T12:58:59.604Z,55.18
2023-02-06T13:02:00.571Z,56.02
2023-02-06T13:04:33.128Z,54.22
2023-02-06T13:07:06.408Z,54.70
2023-02-06T13:10:04.075Z,54.18
2023-02-06T13:12:31.542Z,54.66
2023-02-06T13:15:03.942Z,55.03
2023-02-06T13:17:44.847Z,54.63
2023-02-06T13:20:16.413Z,54.98
2023-02-06T13:23:15.974Z,53.83
2023-02-06T13:25:46.461Z,54.16
2023-02-06T13:28:22.120Z,54.96
2023-02-06T13:31:07.472Z,54.30
2023-02-06T13:33:44.079Z,53.98
2023-02-06T13:36:18.340Z,52.41
2023-02-06T13:38:44.984Z,51.99
2023-02-06T13:41:14.390Z,52.59
2023-02-06T13:43:51.660Z,51.96
2023-02-06T13:46:20.772Z,51.75
2023-02-06T13:48:53.149Z,52.93
2023-02-06T13:51:44.343Z,52.76
2023-02-06T13:54:26.748Z,53.10
2023-02-06T13:57:26.739Z,53.68
2023-02-06T13:59:53.375Z,52.75
2023-02-06T14:02:28.825Z,53.21
2023-02-06T14:04:58.588Z,53.12
2023-02-06T14:07:50.381Z,54.14
2023-02-06T14:10:48.083Z,53.46
2023-02-06T14:13:48.997Z,52.98
2023-02-06T14:16:28.096Z,53.03
2023-02-06T14:19:09.884Z,51.38
2023-02-06T14:21:40.735Z,53.47
2023-02-06T14:24:31.757Z,52.18
2023-02-06T14:27:20.075Z,53.36
2023-02-06T14:30:22.423Z,52.80
2023-02-06T14:32:54.267Z,53.83
2023-02-06T14:35:40.917Z,54.09
2023-02-06T14:38:45.430Z,54.47
2023-02-06T14:41:12.116Z,53.94
2023-02-06T14:43:41.154Z,54.28
2023-02-06T14:46:11.934Z,54.05
2023-02-06T14:48:44.647Z,52.88
2023-02-06T14:51:24.612Z,54.99
2023-02-06T14:53:57.617Z,53.71
2023-02-06T14:56:36.638Z,53.27
2023-02-06T14:59:12.364Z,54.04
2023-02-06T15:01:39.609Z,53.90
2023-02-06T15:04:12.048Z,54.25
2023-02-06T15:06:42.035Z,54.66
2023-02-06T15:09:08.563Z,54.54
2023-02-06T15:11:35.205Z,54.89
2023-02-06T15:14:04.670Z,55.44
2023-02-06T15:16:45.781Z,54.95
2023-02-06T15:19:13.305Z,55.29
2023-02-06T15:21:41.103Z,54.72
2023-02-06T15:24:23.925Z,55.30
2023-02-06T15:27:01.105Z,56.07
2023-02-06T15:29:28.011Z,54.88
2023-02-06T15:32:00.685Z,55.51
2023-02-06T15:34:27.845Z,55.91
2023-02-06T15:36:54.757Z,55.85
2023-02-06T15:39:21.692Z,55.16
2023-02-06T15:41:51.723Z,56.02
2023-02-06T15:44:21.491Z,56.12
2023-02-06T15:46:49.441Z,55.56
2023-02-06T15:49:42.351Z,55.97
2023-02-06T15:52:10.244Z,55.80
2023-02-06T15:54:40.254Z,56.36
2023-02-06T15:57:28.762Z,55.93
2023-02-06T15:59:59.585Z,55.58
2023-02-06T16:02:32.690Z,56.54
2023-02-06T16:04:59.771Z,56.49
2023-02-06T16:07:28.072Z,54.96
2023-02-06T16:09:54.623Z,56.06
2023-02-06T16:12:21.989Z,54.36
2023-02-06T16:15:00.029Z,55.74
2023-02-06T16:17:41.071Z,54.80
2023-02-06T16:20:27.488Z,55.71
2023-02-06T16:22:57.723Z,55.70
2023-02-06T16:25:30.239Z,56.20
2023-02-06T16:27:57.173Z,56.06
2023-02-06T16:30:30.446Z,55.50
2023-02-06T16:32:58.439Z,55.93
2023-02-06T16:35:25.056Z,55.96
2023-02-06T16:37:53.345Z,55.77
2023-02-06T16:40:20.183Z,56.45
2023-02-06T16:42:47.674Z,57.06
2023-02-06T16:45:26.276Z,54.96
2023-02-06T16:47:54.936Z,54.41
2023-02-06T16:50:21.746Z,54.46
2023-02-06T16:52:54.080Z,55.08
2023-02-06T16:55:24.959Z,54.16
2023-02-06T16:57:58.791Z,53.07
2023-02-06T17:00:31.415Z,54.60
2023-02-06T17:03:06.570Z,54.11
2023-02-06T17:05:37.141Z,56.10
2023-02-06T17:08:13.179Z,55.36
2023-02-06T17:10:39.683Z,56.61
2023-02-06T17:13:06.253Z,57.12
2023-02-06T17:15:32.877Z,56.54
2023-02-06T17:17:59.504Z,57.09
2023-02-06T17:20:30.963Z,57.63
2023-02-06T17:22:57.480Z,56.68
2023-02-06T17:25:24.596Z,57.11
2023-02-06T17:27:52.238Z,58.35
2023-02-06T17:30:21.592Z,57.78
2023-02-06T17:32:48.578Z,58.31
2023-02-06T17:35:15.537Z,58.22
2023-02-06T17:37:42.618Z,58.09
2023-02-06T17:40:12.176Z,57.75
2023-02-06T17:42:39.027Z,57.30
2023-02-06T17:45:05.960Z,57.88
2023-02-06T17:47:32.618Z,58.93
2023-02-06T17:49:59.288Z,58.87
2023-02-06T17:52:26.064Z,58.42
2023-02-06T17:54:52.564Z,58.42
2023-02-06T17:57:19.307Z,58.35
2023-02-06T17:59:45.816Z,58.43
2023-02-06T18:02:14.149Z,58.84
2023-02-06T18:04:40.610Z,57.74
2023-02-06T18:07:07.933Z,58.50
2023-02-06T18:09:34.756Z,58.28
2023-02-06T18:12:01.275Z,57.27
2023-02-06T18:14:27.796Z,56.94
2023-02-06T18:16:54.314Z,57.07
2023-02-06T18:19:24.736Z,57.88
2023-02-06T18:21:51.452Z,56.74
2023-02-06T18:24:17.951Z,55.96
2023-02-06T18:26:44.720Z,56.49
2023-02-06T18:29:11.233Z,57.88
2023-02-06T18:31:37.865Z,56.57
2023-02-06T18:34:07.908Z,56.70
2023-02-06T18:36:35.938Z,56.90
2023-02-06T18:39:02.558Z,56.52
2023-02-06T18:41:48.130Z,55.72
2023-02-06T18:44:14.718Z,57.37
2023-02-06T18:46:41.305Z,56.42
2023-02-06T18:49:07.887Z,56.62
2023-02-06T18:51:34.670Z,57.22
2023-02-06T18:54:01.314Z,56.94
2023-02-06T18:56:27.934Z,57.06
2023-02-06T18:58:55.063Z,57.60
2023-02-06T19:01:23.651Z,57.88
2023-02-06T19:03:51.022Z,58.53
2023-02-06T19:06:32.192Z,58.07
2023-02-06T19:08:59.170Z,59.00
2023-02-06T19:11:26.518Z,58.31
2023-02-06T19:13:53.526Z,58.63
2023-02-06T19:16:20.666Z,59.43
2023-02-06T19:18:48.938Z,59.97
2023-02-06T19:21:18.315Z,60.61
2023-02-06T19:23:46.309Z,60.42
2023-02-06T19:26:15.124Z,61.71
2023-02-06T19:28:42.745Z,62.27
2023-02-06T19:31:10.938Z,61.26
2023-02-06T19:33:38.796Z,61.56
2023-02-06T19:36:15.786Z,61.48
2023-02-06T19:38:42.883Z,61.97
2023-02-06T19:41:14.570Z,61.04
2023-02-06T19:43:42.521Z,62.89
2023-02-06T19:46:13.827Z,62.95
2023-02-06T19:48:45.578Z,62.60
2023-02-06T19:51:21.405Z,62.46
2023-02-06T19:53:49.406Z,64.74
2023-02-06T19:56:22.497Z,63.60
2023-02-06T19:58:56.532Z,63.70
2023-02-06T20:01:23.927Z,64.75
2023-02-06T20:03:50.686Z,65.14
2023-02-06T20:06:17.832Z,65.24
2023-02-06T20:08:45.999Z,65.80
2023-02-06T20:11:15.039Z,65.57
2023-02-06T20:13:41.810Z,67.18
2023-02-06T20:16:20.033Z,65.91
2023-02-06T20:18:46.596Z,64.91
2023-02-06T20:21:28.259Z,65.30
2023-02-06T20:23:55.792Z,66.02
2023-02-06T20:26:24.140Z,64.83
2023-02-06T20:28:50.782Z,64.77
2023-02-06T20:31:17.431Z,65.38
2023-02-06T20:33:44.326Z,64.95
2023-02-06T20:36:14.057Z,65.07
2023-02-06T20:38:41.171Z,65.25
2023-02-06T20:41:08.262Z,65.32
2023-02-06T20:43:36.241Z,65.29
2023-02-06T20:46:05.979Z,63.89
2023-02-06T20:48:33.850Z,64.75
2023-02-06T20:51:01.999Z,64.37
2023-02-06T20:53:29.474Z,65.19
2023-02-06T20:55:56.457Z,64.46
2023-02-06T20:58:23.227Z,63.78
2023-02-06T21:00:50.255Z,64.52
2023-02-06T21:03:16.903Z,65.24
2023-02-06T21:05:43.771Z,63.74
2023-02-06T21:08:10.605Z,64.24
2023-02-06T21:10:37.380Z,65.29
2023-02-06T21:13:04.018Z,65.38
2023-02-06T21:15:30.559Z,64.80
2023-02-06T21:17:58.237Z,64.17
2023-02-06T21:20:24.718Z,64.54
2023-02-06T21:22:52.829Z,64.58
2023-02-06T21:25:20.458Z,64.76
2023-02-06T21:27:47.068Z,65.00
2023-02-06T21:30:13.757Z,65.20
2023-02-06T21:32:40.319Z,64.93
2023-02-06T21:35:09.191Z,64.30
2023-02-06T21:37:35.940Z,64.55
2023-02-06T21:40:03.439Z,64.54
2023-02-06T21:42:29.962Z,64.00
2023-02-06T21:44:56.453Z,63.45
2023-02-06T21:47:22.962Z,63.97
2023-02-06T21:49:49.435Z,63.90
2023-02-06T21:52:15.949Z,64.81
2023-02-06T21:54:42.453Z,63.87
2023-02-06T21:57:08.959Z,63.08
2023-02-06T21:59:37.810Z,63.39
2023-02-06T22:02:04.821Z,64.04
2023-02-06T22:04:31.387Z,63.54
2023-02-06T22:06:57.942Z,62.82
2023-02-06T22:09:24.499Z,62.96
2023-02-06T22:11:51.030Z,63.55
2023-02-06T22:14:18.194Z,63.49
2023-02-06T22:16:46.832Z,63.44
2023-02-06T22:19:14.649Z,64.03
2023-02-06T22:21:41.849Z,63.42
2023-02-06T22:24:10.223Z,63.50
2023-02-06T22:26:38.551Z,63.07
2023-02-06T22:29:08.925Z,62.38
2023-02-06T22:31:36.563Z,62.08
2023-02-06T22:34:03.297Z,62.45
2023-02-06T22:36:32.270Z,63.26
2023-02-06T22:39:10.182Z,62.53
2023-02-06T22:41:39.298Z,62.28
2023-02-06T22:44:05.813Z,62.65
2023-02-06T22:46:37.818Z,62.19
2023-02-06T22:49:06.365Z,62.01
2023-02-06T22:51:33.155Z,63.00
2023-02-06T22:54:00.522Z,62.45
2023-02-06T22:56:36.007Z,63.08
2023-02-06T22:59:05.475Z,62.88
2023-02-06T23:01:53.372Z,63.49
2023-02-06T23:04:22.311Z,62.98
2023-02-06T23:06:49.577Z,63.58
2023-02-06T23:09:18.691Z,63.33
2023-02-06T23:11:45.517Z,63.52
2023-02-06T23:14:13.486Z,63.85
2023-02-06T23:16:40.252Z,63.73
2023-02-06T23:19:07.168Z,62.66
2023-02-06T23:21:36.612Z,61.84
2023-02-06T23:24:04.933Z,63.25
2023-02-06T23:26:31.970Z,62.11
2023-02-06T23:29:00.257Z,63.14
2023-02-06T23:31:27.582Z,62.96
2023-02-06T23:33:54.521Z,62.25
2023-02-06T23:36:22.694Z,61.88
2023-02-06T23:38:49.503Z,61.38
2023-02-06T23:41:27.172Z,60.09
2023-02-06T23:43:57.977Z,61.65
2023-02-06T23:46:25.633Z,60.27
2023-02-06T23:48:52.864Z,60.58
2023-02-06T23:51:20.555Z,59.53
2023-02-06T23:53:48.062Z,60.23
2023-02-06T23:56:17.333Z,61.83
2023-02-06T23:58:44.282Z,60.84
